Time;durP1;ratioP1;P1;durP2;ratioP2;P2;SDS_P1;SDS_P2;PMS_P1;PMS_P2;Temp;Humidity;BMP_temperature;BMP_pressure;BME280_temperature;BME280_humidity;BME280_pressure;Samples;Min_cycle;Max_cycle;Signal;HPM_P1;HPM_P2
2021/06/07 00:00:53;;;;;;;2.17;1.00;;;23.20;67.90;;;;;;5204840;28;20053;-51
2021/06/07 00:03:26;;;;;;;2.95;1.15;;;23.20;67.90;;;;;;5201792;28;20211;-58
2021/06/07 00:05:58;;;;;;;1.63;0.82;;;23.20;68.00;;;;;;5185956;28;20045;-56
2021/06/07 00:08:32;;;;;;;2.38;1.30;;;23.20;67.90;;;;;;5204593;28;20050;-55
2021/06/07 00:11:05;;;;;;;2.28;1.30;;;23.20;68.00;;;;;;5179450;28;20049;-56
2021/06/07 00:13:38;;;;;;;4.45;1.10;;;23.20;67.90;;;;;;5204269;28;20094;-57
2021/06/07 00:16:11;;;;;;;;;;;23.20;67.90;;;;;;5184723;28;20048;-56
2021/06/07 00:18:44;;;;;;;3.72;1.63;;;23.10;67.80;;;;;;5209416;28;19920;-56
2021/06/07 00:21:26;;;;;;;1.98;1.35;;;23.20;67.90;;;;;;5204930;28;20480;-55
2021/06/07 00:23:59;;;;;;;2.13;1.05;;;23.20;67.90;;;;;;5222403;22;20048;-89
2021/06/07 00:26:32;;;;;;;3.53;1.00;;;23.20;67.80;;;;;;5214366;28;20045;-90
2021/06/07 00:29:06;;;;;;;0.80;0.80;;;23.20;67.80;;;;;;5197534;28;20045;-90
2021/06/07 00:31:39;;;;;;;;;;;23.20;67.80;;;;;;5221315;28;20335;-91
2021/06/07 00:34:12;;;;;;;3.05;1.20;;;23.10;67.80;;;;;;5192747;28;20903;-91
2021/06/07 00:36:45;;;;;;;3.72;1.15;;;23.10;67.90;;;;;;5218787;28;20418;-90
2021/06/07 00:39:18;;;;;;;6.13;1.00;;;23.10;67.90;;;;;;5196831;28;20068;-89
2021/06/07 00:41:50;;;;;;;2.85;1.05;;;23.10;67.90;;;;;;5204814;28;20561;-91
2021/06/07 00:44:23;;;;;;;1.83;1.00;;;23.10;67.90;;;;;;5234287;28;20122;-90
2021/06/07 00:46:56;;;;;;;3.97;1.10;;;23.10;67.90;;;;;;5229720;28;20566;-90
2021/06/07 00:49:29;;;;;;;4.13;1.10;;;23.10;67.90;;;;;;5195348;28;20061;-92
2021/06/07 00:52:01;;;;;;;1.67;0.95;;;23.10;67.90;;;;;;5191202;28;20053;-90
2021/06/07 00:54:35;;;;;;;2.50;1.20;;;23.10;68.00;;;;;;5210316;28;20065;-90
2021/06/07 00:57:08;;;;;;;2.08;0.95;;;23.10;68.00;;;;;;5225845;28;20064;-90
2021/06/07 00:59:40;;;;;;;5.20;1.03;;;23.10;67.90;;;;;;5216942;28;20049;-87
2021/06/07 01:02:14;;;;;;;1.37;0.83;;;23.10;67.90;;;;;;5180495;28;20049;-90
2021/06/07 01:04:48;;;;;;;5.95;1.08;;;23.10;67.90;;;;;;5218513;28;20068;-88
2021/06/07 01:07:20;;;;;;;2.55;1.00;;;23.10;68.00;;;;;;5201536;28;20470;-92
2021/06/07 01:09:53;;;;;;;1.95;0.95;;;23.10;68.00;;;;;;5200318;28;20060;-91
2021/06/07 01:12:25;;;;;;;5.13;0.90;;;23.10;68.00;;;;;;5197170;28;20495;-91
2021/06/07 01:14:58;;;;;;;3.80;0.98;;;23.10;68.00;;;;;;5197069;28;20053;-89
2021/06/07 01:17:31;;;;;;;2.95;1.10;;;23.10;68.00;;;;;;5229559;28;20495;-88
2021/06/07 01:20:07;;;;;;;1.77;1.00;;;23.10;68.00;;;;;;5195642;28;20052;-89
2021/06/07 01:22:40;;;;;;;3.03;1.00;;;23.10;68.00;;;;;;5215473;28;20045;-89
2021/06/07 01:25:36;;;;;;;2.97;0.90;;;23.10;68.00;;;;;;5224527;28;20055;-89
2021/06/07 01:28:29;;;;;;;1.20;0.90;;;23.10;67.90;;;;;;5217591;28;20525;-90
2021/06/07 01:31:03;;;;;;;1.90;0.93;;;23.10;67.90;;;;;;5197425;28;20052;-90
2021/06/07 01:33:55;;;;;;;3.20;0.70;;;23.10;67.90;;;;;;5231945;28;20421;-89
2021/06/07 01:36:46;;;;;;;1.30;1.00;;;23.10;67.90;;;;;;5213722;28;20053;-91
2021/06/07 01:39:37;;;;;;;2.00;0.90;;;23.10;67.80;;;;;;5227570;28;20497;-92
2021/06/07 01:42:28;;;;;;;0.85;0.80;;;23.10;67.80;;;;;;5204779;28;20052;-88
2021/06/07 01:45:03;;;;;;;0.73;0.73;;;23.00;67.80;;;;;;5212828;28;20056;-92
2021/06/07 01:47:36;;;;;;;2.28;1.00;;;23.00;67.80;;;;;;5217755;28;20049;-90
2021/06/07 01:50:28;;;;;;;1.90;1.00;;;23.10;67.80;;;;;;5221723;28;20063;-89
2021/06/07 01:53:01;;;;;;;4.35;0.95;;;23.00;67.70;;;;;;5205760;28;20049;-90
2021/06/07 01:55:41;;;;;;;1.48;0.95;;;23.00;67.80;;;;;;5197054;28;20040;-91
2021/06/07 01:58:16;;;;;;;1.88;1.00;;;23.00;67.70;;;;;;5233853;28;20056;-89
2021/06/07 02:00:59;;;;;;;1.02;0.80;;;23.00;67.70;;;;;;5196404;28;20049;-91
2021/06/07 02:03:32;;;;;;;1.52;1.20;;;23.00;67.50;;;;;;5230264;28;20049;-91
2021/06/07 02:06:08;;;;;;;3.72;1.10;;;23.00;67.60;;;;;;5215197;28;20410;-91
2021/06/07 02:08:41;;;;;;;2.92;1.00;;;23.00;67.60;;;;;;5201604;28;20055;-90
2021/06/07 02:11:26;;;;;;;1.97;0.87;;;23.00;67.70;;;;;;5181253;28;20545;-91
2021/06/07 02:14:03;;;;;;;1.55;1.10;;;23.00;67.60;;;;;;5195314;28;20049;-88
2021/06/07 02:16:37;;;;;;;18.35;2.35;;;23.00;67.50;;;;;;5210102;28;20053;-91
2021/06/07 02:19:11;;;;;;;4.45;1.20;;;23.00;67.50;;;;;;5217547;28;20060;-89
2021/06/07 02:21:45;;;;;;;1.33;0.80;;;23.00;67.60;;;;;;5214809;28;20049;-92
2021/06/07 02:24:19;;;;;;;2.10;1.00;;;23.00;67.50;;;;;;5206075;28;20408;-91
2021/06/07 02:26:52;;;;;;;2.72;0.90;;;23.00;67.60;;;;;;5180634;28;20056;-91
2021/06/07 02:29:25;;;;;;;1.87;1.10;;;23.00;67.50;;;;;;5212969;28;20052;-91
2021/06/07 02:31:58;;;;;;;8.10;1.48;;;23.00;67.50;;;;;;5213377;28;20342;-90
2021/06/07 02:34:30;;;;;;;2.17;1.17;;;23.00;67.60;;;;;;5198701;28;20053;-89
2021/06/07 02:37:04;;;;;;;6.15;1.15;;;23.00;67.50;;;;;;5213825;28;20620;-89
2021/06/07 02:39:36;;;;;;;;;;;23.00;67.50;;;;;;5214747;28;20628;-90
2021/06/07 02:42:10;;;;;;;8.02;1.10;;;22.90;67.50;;;;;;5215846;28;19924;-90
2021/06/07 02:44:43;;;;;;;1.50;0.82;;;23.00;67.70;;;;;;5211846;28;20041;-91
2021/06/07 02:47:17;;;;;;;1.63;1.05;;;23.00;67.60;;;;;;5194826;28;20037;-92
2021/06/07 02:49:50;;;;;;;;;;;23.00;67.50;;;;;;5198314;28;20426;-89
2021/06/07 02:52:24;;;;;;;1.50;1.02;;;22.90;67.60;;;;;;5226353;28;19928;-90
2021/06/07 02:54:57;;;;;;;1.35;0.85;;;22.90;67.50;;;;;;5193717;28;20053;-90
2021/06/07 02:57:29;;;;;;;1.47;0.80;;;23.00;67.50;;;;;;5197506;28;20045;-91
2021/06/07 03:00:03;;;;;;;1.60;0.82;;;23.00;67.50;;;;;;5213962;28;20056;-90
2021/06/07 03:02:35;;;;;;;;;;;22.90;67.50;;;;;;5213109;28;20045;-91
2021/06/07 03:05:09;;;;;;;1.17;0.77;;;22.90;67.60;;;;;;5194105;28;19928;-90
2021/06/07 03:07:41;;;;;;;0.77;0.68;;;23.00;67.60;;;;;;5215321;28;20621;-90
2021/06/07 03:10:14;;;;;;;2.25;0.93;;;23.00;67.50;;;;;;5216590;28;20482;-91
2021/06/07 03:12:47;;;;;;;1.00;0.70;;;22.90;67.40;;;;;;5198230;28;20044;-91
2021/06/07 03:15:22;;;;;;;1.42;0.90;;;22.90;67.40;;;;;;5208933;28;20636;-92
2021/06/07 03:17:56;;;;;;;1.45;0.82;;;22.90;67.40;;;;;;5199396;28;20140;-89
2021/06/07 03:20:30;;;;;;;;;;;22.90;67.40;;;;;;5201800;28;20053;-91
2021/06/07 03:23:07;;;;;;;1.27;0.80;;;22.90;67.50;;;;;;5219746;28;19924;-89
2021/06/07 03:25:44;;;;;;;1.92;0.73;;;22.90;67.40;;;;;;5209440;28;20045;-90
2021/06/07 03:28:18;;;;;;;0.77;0.60;;;23.00;67.50;;;;;;5202173;28;20052;-89
2021/06/07 03:30:51;;;;;;;0.70;0.70;;;22.90;67.30;;;;;;5201073;28;20056;-90
2021/06/07 03:33:25;;;;;;;1.10;0.63;;;22.90;67.40;;;;;;5217200;28;20056;-90
2021/06/07 03:35:59;;;;;;;2.05;0.70;;;23.00;67.40;;;;;;5185132;28;20057;-89
2021/06/07 03:38:33;;;;;;;2.70;0.68;;;22.90;67.40;;;;;;5216247;28;20056;-89
2021/06/07 03:41:07;;;;;;;2.15;0.50;;;22.90;67.40;;;;;;5218249;28;20048;-90
2021/06/07 03:43:41;;;;;;;0.85;0.70;;;22.90;67.40;;;;;;5202181;28;20406;-91
2021/06/07 03:46:16;;;;;;;1.35;0.90;;;22.90;67.50;;;;;;5214720;28;20383;-91
2021/06/07 03:48:49;;;;;;;2.13;1.10;;;22.90;67.40;;;;;;5218903;28;20490;-88
2021/06/07 03:51:21;;;;;;;4.77;0.90;;;22.90;67.50;;;;;;5214636;28;20055;-90
2021/06/07 03:53:54;;;;;;;1.95;0.85;;;22.90;67.40;;;;;;5219180;28;20422;-90
2021/06/07 03:56:27;;;;;;;1.15;0.88;;;22.90;67.50;;;;;;5215624;28;20064;-91
2021/06/07 03:58:59;;;;;;;8.35;1.27;;;22.90;67.50;;;;;;5195635;28;20080;-90
2021/06/07 04:01:32;;;;;;;5.73;1.03;;;22.90;67.60;;;;;;5219625;28;20052;-90
2021/06/07 04:04:05;;;;;;;6.43;1.17;;;22.90;67.70;;;;;;5218751;28;20823;-91
2021/06/07 04:06:38;;;;;;;2.97;0.83;;;22.90;67.50;;;;;;5178668;28;20049;-90
2021/06/07 04:09:10;;;;;;;3.08;1.17;;;22.90;67.50;;;;;;5208501;28;20045;-92
2021/06/07 04:11:43;;;;;;;3.03;0.82;;;22.90;67.40;;;;;;5196040;28;20045;-90
2021/06/07 04:14:16;;;;;;;8.70;1.63;;;23.00;67.40;;;;;;5217882;28;20057;-89
2021/06/07 04:16:49;;;;;;;3.45;0.90;;;23.00;67.40;;;;;;5226087;28;20100;-92
2021/06/07 04:19:21;;;;;;;2.08;0.70;;;22.90;67.40;;;;;;5203336;28;20849;-90
2021/06/07 04:21:54;;;;;;;4.68;1.02;;;22.90;67.40;;;;;;5226781;28;20049;-90
2021/06/07 04:24:27;;;;;;;3.47;0.90;;;23.00;67.50;;;;;;5206169;28;20517;-90
2021/06/07 04:27:00;;;;;;;1.45;0.80;;;22.90;67.40;;;;;;5202806;28;20045;-91
2021/06/07 04:29:33;;;;;;;5.20;1.93;;;23.00;67.30;;;;;;5189800;28;20425;-90
2021/06/07 04:32:06;;;;;;;1.55;0.90;;;22.90;67.30;;;;;;5209531;28;20495;-90
2021/06/07 04:34:39;;;;;;;3.28;1.10;;;22.90;67.20;;;;;;5200809;28;20072;-89
2021/06/07 04:37:12;;;;;;;1.43;0.90;;;22.90;67.10;;;;;;5210439;28;20491;-89
2021/06/07 04:39:45;;;;;;;2.15;0.63;;;22.90;67.20;;;;;;5194359;28;20064;-89
2021/06/07 04:42:17;;;;;;;3.15;0.63;;;22.90;67.10;;;;;;5212605;28;20053;-90
2021/06/07 04:44:50;;;;;;;3.72;0.90;;;23.00;67.20;;;;;;5203944;28;20048;-87
2021/06/07 04:47:23;;;;;;;4.03;1.10;;;22.90;67.20;;;;;;5201679;28;20053;-89
2021/06/07 04:50:00;;;;;;;6.50;1.08;;;22.90;67.20;;;;;;5181500;28;20099;-91
2021/06/07 04:52:56;;;;;;;2.60;0.80;;;22.90;67.20;;;;;;5173832;28;20057;-92
2021/06/07 04:55:43;;;;;;;4.10;1.02;;;23.00;67.20;;;;;;5204681;28;20055;-92
2021/06/07 04:58:30;;;;;;;3.45;0.88;;;22.90;67.20;;;;;;5201476;28;20056;-93
2021/06/07 05:01:12;;;;;;;4.55;1.17;;;23.00;67.30;;;;;;5204759;28;20049;-90
2021/06/07 05:03:45;;;;;;;13.95;1.58;;;23.00;67.40;;;;;;5200209;28;20044;-92
2021/06/07 05:06:18;;;;;;;12.63;1.65;;;23.00;67.70;;;;;;5195661;28;20410;-89
2021/06/07 05:08:51;;;;;;;12.70;1.80;;;23.00;67.70;;;;;;5168279;28;20049;-90
2021/06/07 05:11:24;;;;;;;8.77;1.30;;;23.00;67.60;;;;;;5201525;28;20052;-90
2021/06/07 05:13:56;;;;;;;7.23;1.17;;;23.00;67.40;;;;;;5222469;28;20327;-90
2021/06/07 05:16:29;;;;;;;5.10;1.20;;;23.00;67.60;;;;;;5189720;28;20403;-91
2021/06/07 05:19:02;;;;;;;9.27;1.80;;;23.00;67.30;;;;;;5176153;28;20387;-90
2021/06/07 05:21:35;;;;;;;14.95;1.75;;;23.00;67.30;;;;;;5200715;28;20045;-90
2021/06/07 05:24:08;;;;;;;8.75;1.42;;;23.00;67.20;;;;;;5204534;28;20267;-92
2021/06/07 05:26:41;;;;;;;6.13;1.33;;;23.00;67.20;;;;;;5209184;28;21255;-90
2021/06/07 05:29:14;;;;;;;6.82;1.38;;;23.00;67.20;;;;;;5215958;28;20226;-90
2021/06/07 05:31:47;;;;;;;7.53;1.50;;;23.00;67.10;;;;;;5208919;28;20060;-91
2021/06/07 05:34:19;;;;;;;5.10;1.20;;;23.00;67.10;;;;;;5185585;28;20307;-91
2021/06/07 05:36:54;;;;;;;7.32;1.38;;;23.00;67.10;;;;;;5208540;28;20048;-91
2021/06/07 05:39:28;;;;;;;8.13;1.30;;;23.00;67.00;;;;;;5228826;28;20053;-89
2021/06/07 05:42:01;;;;;;;9.55;1.50;;;23.00;67.00;;;;;;5201191;28;20057;-90
2021/06/07 05:44:34;;;;;;;8.23;1.30;;;23.00;67.10;;;;;;5211268;28;20045;-89
2021/06/07 05:47:07;;;;;;;11.00;1.65;;;23.10;67.10;;;;;;5194346;28;20056;-89
2021/06/07 05:49:41;;;;;;;9.52;1.73;;;23.00;67.10;;;;;;5190692;28;20557;-91
2021/06/07 05:52:15;;;;;;;6.35;1.30;;;23.10;67.10;;;;;;5215166;28;20416;-89
2021/06/07 05:54:49;;;;;;;7.43;1.10;;;23.10;67.10;;;;;;5188527;28;20574;-90
2021/06/07 05:57:22;;;;;;;4.32;1.50;;;23.10;67.10;;;;;;5220513;28;20608;-90
2021/06/07 05:59:54;;;;;;;8.77;1.58;;;23.10;67.20;;;;;;5193286;28;20061;-91
2021/06/07 06:02:31;;;;;;;9.00;1.73;;;23.10;67.20;;;;;;5227560;28;20041;-87
2021/06/07 06:05:05;;;;;;;5.22;1.02;;;23.10;67.30;;;;;;5206379;28;20067;-91
2021/06/07 06:07:39;;;;;;;5.28;1.20;;;23.10;67.40;;;;;;5201771;28;20041;-89
2021/06/07 06:10:13;;;;;;;3.33;1.00;;;23.10;67.40;;;;;;5216268;28;20053;-88
2021/06/07 06:12:48;;;;;;;6.05;1.42;;;23.10;67.40;;;;;;5196544;28;20048;-88
2021/06/07 06:15:24;;;;;;;3.80;1.00;;;23.10;67.50;;;;;;5215635;28;20585;-88
2021/06/07 06:17:56;;;;;;;5.45;1.20;;;23.10;67.40;;;;;;5188236;28;20049;-87
2021/06/07 06:20:33;;;;;;;2.33;1.23;;;23.10;67.40;;;;;;5190932;28;20053;-89
2021/06/07 06:23:05;;;;;;;1.42;0.90;;;23.10;67.50;;;;;;5181333;28;22114;-89
2021/06/07 06:25:40;;;;;;;4.40;1.40;;;23.10;67.50;;;;;;5189170;28;21441;-88
2021/06/07 06:28:18;;;;;;;3.67;1.10;;;23.20;67.50;;;;;;5175167;28;20049;-87
2021/06/07 06:30:52;;;;;;;3.80;0.93;;;23.20;67.50;;;;;;5200048;28;20322;-87
2021/06/07 06:33:26;;;;;;;1.65;0.73;;;23.20;67.50;;;;;;5188505;28;20890;-87
2021/06/07 06:36:24;;;;;;;1.63;0.80;;;23.20;67.50;;;;;;5193747;28;20507;-87
2021/06/07 06:39:01;;;;;;;4.72;1.00;;;23.20;67.60;;;;;;5166008;28;20068;-87
2021/06/07 06:41:35;;;;;;;2.72;1.38;;;23.20;67.50;;;;;;5183161;28;20526;-88
2021/06/07 06:44:08;;;;;;;3.95;0.73;;;23.20;67.50;;;;;;5187195;28;20760;-90
2021/06/07 06:46:41;;;;;;;3.30;0.90;;;23.20;67.40;;;;;;5170831;28;20483;-89
2021/06/07 06:49:15;;;;;;;4.37;1.23;;;23.20;67.40;;;;;;5185067;28;20053;-88
2021/06/07 06:51:48;;;;;;;3.50;0.90;;;23.20;67.40;;;;;;5188071;28;20053;-88
2021/06/07 06:54:21;;;;;;;1.98;0.98;;;23.20;67.40;;;;;;5199000;28;20063;-88
2021/06/07 06:56:53;;;;;;;3.72;1.10;;;23.20;67.40;;;;;;5200451;28;20057;-89
2021/06/07 07:04:17;;;;;;;3.95;1.10;;;23.10;67.20;;;;;;5214580;22;20553;-73
2021/06/07 07:06:50;;;;;;;1.80;0.80;;;23.20;67.30;;;;;;5196083;28;20041;-74
2021/06/07 07:09:22;;;;;;;1.25;0.70;;;23.20;67.20;;;;;;5197988;28;20072;-74
2021/06/07 07:11:55;;;;;;;1.70;0.70;;;23.20;67.20;;;;;;5204711;28;20057;-74
2021/06/07 07:14:27;;;;;;;2.95;0.98;;;23.20;67.20;;;;;;5204885;28;20053;-74
2021/06/07 07:17:00;;;;;;;1.15;0.85;;;23.20;67.20;;;;;;5203615;28;20058;-75
2021/06/07 07:19:33;;;;;;;3.25;1.00;;;23.20;67.20;;;;;;5199551;28;20057;-74
2021/06/07 07:22:06;;;;;;;2.50;0.98;;;23.20;67.20;;;;;;5199625;28;20053;-74
2021/06/07 07:24:43;;;;;;;3.20;0.90;;;23.20;67.10;;;;;;5201566;28;20495;-73
2021/06/07 07:27:18;;;;;;;3.63;0.90;;;23.30;67.10;;;;;;5202224;28;20276;-74
2021/06/07 07:29:51;;;;;;;2.80;0.80;;;23.30;67.00;;;;;;5202799;28;20155;-73
2021/06/07 07:32:28;;;;;;;1.25;0.60;;;23.30;67.00;;;;;;5200653;28;20061;-73
2021/06/07 07:35:01;;;;;;;1.90;0.80;;;23.30;67.00;;;;;;5203539;28;20447;-74
2021/06/07 07:37:34;;;;;;;1.33;0.90;;;23.30;66.90;;;;;;5208280;28;20061;-74
2021/06/07 07:40:09;;;;;;;1.15;0.80;;;23.30;67.50;;;;;;5203687;28;20441;-74
2021/06/07 07:42:42;;;;;;;2.80;1.30;;;23.30;66.90;;;;;;5207141;28;20056;-74
2021/06/07 07:45:19;;;;;;;1.55;0.77;;;23.30;66.80;;;;;;5203977;28;20054;-74
2021/06/07 07:47:54;;;;;;;1.77;0.60;;;23.30;66.80;;;;;;5205152;28;20049;-74
2021/06/07 07:50:27;;;;;;;1.75;0.82;;;23.30;66.70;;;;;;5209552;28;20064;-74
2021/06/07 07:53:00;;;;;;;3.17;0.73;;;23.30;66.70;;;;;;5207843;28;20140;-74
2021/06/07 07:55:34;;;;;;;0.68;0.60;;;23.30;66.70;;;;;;5198429;28;20072;-74
2021/06/07 07:58:10;;;;;;;1.70;0.82;;;23.40;66.80;;;;;;5202555;28;20053;-74
2021/06/07 08:00:43;;;;;;;2.72;0.70;;;23.40;66.70;;;;;;5202562;28;20052;-74
2021/06/07 08:03:16;;;;;;;7.03;1.05;;;23.40;66.70;;;;;;5199180;28;20057;-74
2021/06/07 08:05:49;;;;;;;2.28;0.88;;;23.40;66.70;;;;;;5196644;28;20320;-74
2021/06/07 08:08:22;;;;;;;0.80;0.80;;;23.40;66.70;;;;;;5201438;28;20421;-74
2021/06/07 08:10:56;;;;;;;6.10;0.80;;;23.40;66.60;;;;;;5201095;28;20068;-74
2021/06/07 08:13:29;;;;;;;1.65;0.77;;;23.40;66.60;;;;;;5199515;28;20490;-74
2021/06/07 08:16:01;;;;;;;4.57;1.00;;;23.40;66.60;;;;;;5202164;28;20050;-74
2021/06/07 08:18:34;;;;;;;1.75;1.15;;;23.40;66.60;;;;;;5198650;28;20311;-74
2021/06/07 08:21:07;;;;;;;1.75;0.50;;;23.40;66.60;;;;;;5199130;28;20068;-74
2021/06/07 08:23:39;;;;;;;1.45;0.80;;;23.40;66.60;;;;;;5201360;28;20050;-74
2021/06/07 08:26:12;;;;;;;3.53;0.80;;;23.40;66.60;;;;;;5214303;28;20051;-73
2021/06/07 08:28:45;;;;;;;1.05;0.82;;;23.40;66.60;;;;;;5198420;28;20049;-73
2021/06/07 08:31:18;;;;;;;2.25;0.60;;;23.40;66.70;;;;;;5197149;28;20045;-74
2021/06/07 08:33:50;;;;;;;0.65;0.60;;;23.40;66.70;;;;;;5197404;28;20056;-74
2021/06/07 08:36:23;;;;;;;3.08;0.70;;;23.40;66.70;;;;;;5195870;28;20058;-74
2021/06/07 08:38:56;;;;;;;0.73;0.73;;;23.40;66.70;;;;;;5197847;28;20064;-74
2021/06/07 08:41:28;;;;;;;0.68;0.60;;;23.40;66.70;;;;;;5194850;28;20054;-74
2021/06/07 08:44:01;;;;;;;3.22;1.08;;;23.40;66.70;;;;;;5206443;28;20057;-74
2021/06/07 08:46:33;;;;;;;2.95;0.82;;;23.40;66.80;;;;;;5193756;28;20041;-73
2021/06/07 08:49:06;;;;;;;1.90;0.80;;;23.40;66.70;;;;;;5193953;28;20053;-73
2021/06/07 08:51:39;;;;;;;0.95;0.85;;;23.40;66.70;;;;;;5191498;28;20537;-74
2021/06/07 08:54:12;;;;;;;2.47;0.90;;;23.40;66.70;;;;;;5193347;28;20049;-73
2021/06/07 08:56:44;;;;;;;2.17;1.00;;;23.40;66.70;;;;;;5184809;28;20954;-74
2021/06/07 08:59:17;;;;;;;1.20;0.80;;;23.40;66.60;;;;;;5194210;28;20058;-74
2021/06/07 09:01:54;;;;;;;2.38;1.05;;;23.40;66.60;;;;;;5197001;28;20053;-74
2021/06/07 09:04:27;;;;;;;5.97;1.00;;;23.40;66.60;;;;;;5198583;28;22009;-74
2021/06/07 09:07:03;;;;;;;1.35;0.80;;;23.40;66.50;;;;;;5196838;28;20050;-74
2021/06/07 09:09:38;;;;;;;1.85;1.10;;;23.40;66.40;;;;;;5204108;28;20045;-74
2021/06/07 09:12:22;;;;;;;4.80;0.93;;;23.50;66.50;;;;;;5196363;28;20522;-74
2021/06/07 09:14:55;;;;;;;2.42;0.82;;;23.40;66.40;;;;;;5186325;28;20061;-74
2021/06/07 09:17:27;;;;;;;3.60;1.20;;;23.40;66.50;;;;;;5190675;28;20077;-74
2021/06/07 09:20:14;;;;;;;3.42;1.70;;;23.40;66.60;;;;;;5195144;28;20549;-74
2021/06/07 09:22:56;;;;;;;1.52;0.90;;;23.40;66.60;;;;;;5204831;28;20045;-74
2021/06/07 09:25:32;;;;;;;2.35;0.88;;;23.40;66.60;;;;;;5192488;28;20053;-74
2021/06/07 09:28:08;;;;;;;1.70;0.82;;;23.40;66.70;;;;;;5197249;28;20070;-74
2021/06/07 09:30:58;;;;;;;2.90;0.70;;;23.40;66.80;;;;;;5199834;28;20045;-74
2021/06/07 09:33:40;;;;;;;6.45;1.10;;;23.30;66.70;;;;;;5196301;28;20052;-74
2021/06/07 09:36:20;;;;;;;2.35;0.90;;;23.30;66.70;;;;;;5191988;28;20049;-74
2021/06/07 09:39:02;;;;;;;3.90;0.80;;;23.40;67.20;;;;;;5193432;28;20061;-74
2021/06/07 09:41:45;;;;;;;1.10;0.75;;;23.30;66.80;;;;;;5191141;28;20046;-74
2021/06/07 09:44:37;;;;;;;;;;;23.30;66.80;;;;;;5190886;28;20400;-74
2021/06/07 09:47:21;;;;;;;4.28;1.02;;;23.30;66.80;;;;;;5195570;28;20401;-74
2021/06/07 09:49:54;;;;;;;1.45;0.70;;;23.30;66.90;;;;;;5195259;28;20064;-74
2021/06/07 09:52:31;;;;;;;2.17;1.00;;;23.30;67.00;;;;;;5193421;28;20053;-75
2021/06/07 09:55:19;;;;;;;1.88;1.00;;;23.30;67.00;;;;;;5203715;28;20061;-74
2021/06/07 09:58:14;;;;;;;4.00;1.13;;;23.30;66.90;;;;;;5187810;28;20422;-74
2021/06/07 10:00:49;;;;;;;8.27;1.10;;;23.30;67.00;;;;;;5186256;28;20060;-74
2021/06/07 10:03:24;;;;;;;2.50;0.90;;;23.30;67.00;;;;;;5188710;28;20076;-74
2021/06/07 10:06:00;;;;;;;2.45;0.80;;;23.40;67.00;;;;;;5212286;28;20055;-74
2021/06/07 10:08:44;;;;;;;1.83;0.90;;;23.40;66.90;;;;;;5189578;28;20049;-74
2021/06/07 10:11:16;;;;;;;0.90;0.90;;;23.40;66.90;;;;;;5190641;28;20050;-74
2021/06/07 10:13:50;;;;;;;3.40;0.80;;;23.40;66.90;;;;;;5192021;28;20510;-74
2021/06/07 10:16:24;;;;;;;;;;;23.40;66.90;;;;;;5190106;28;20064;-74
2021/06/07 10:18:59;;;;;;;3.03;0.73;;;23.30;66.90;;;;;;5184063;28;19967;-74
2021/06/07 10:21:32;;;;;;;1.23;0.98;;;23.30;67.00;;;;;;5191089;28;20045;-74
2021/06/07 10:24:05;;;;;;;1.90;1.20;;;23.30;67.00;;;;;;5181613;28;20428;-74
2021/06/07 10:26:37;;;;;;;3.17;0.87;;;23.30;67.00;;;;;;5185550;28;20056;-74
2021/06/07 10:29:10;;;;;;;3.45;0.90;;;23.40;67.00;;;;;;5185350;28;20056;-74
2021/06/07 10:31:43;;;;;;;4.13;1.02;;;23.30;66.90;;;;;;5192593;28;20125;-74
2021/06/07 10:34:16;;;;;;;2.05;1.27;;;23.40;67.00;;;;;;5183128;28;20057;-74
2021/06/07 10:36:49;;;;;;;1.85;1.10;;;23.40;67.00;;;;;;5189831;28;20045;-74
2021/06/07 10:39:23;;;;;;;3.63;1.48;;;23.40;66.90;;;;;;5196787;28;20054;-74
2021/06/07 10:41:59;;;;;;;2.65;1.73;;;23.40;66.90;;;;;;5199986;28;20057;-74
2021/06/07 10:44:43;;;;;;;4.32;1.70;;;23.40;66.90;;;;;;5188844;28;20072;-74
2021/06/07 10:47:41;;;;;;;2.70;1.80;;;23.40;67.00;;;;;;5198310;28;20752;-74
2021/06/07 10:50:26;;;;;;;2.63;1.58;;;23.40;67.00;;;;;;5178096;28;20503;-74
2021/06/07 10:53:02;;;;;;;3.90;1.80;;;23.40;67.00;;;;;;5186189;28;20045;-75
2021/06/07 10:55:41;;;;;;;3.65;2.03;;;23.40;67.00;;;;;;5188322;28;20049;-74
2021/06/07 10:58:15;;;;;;;2.33;1.80;;;23.40;67.00;;;;;;5185207;28;20151;-74
2021/06/07 11:00:49;;;;;;;3.47;1.80;;;23.50;67.10;;;;;;5184893;28;20441;-75
2021/06/07 11:03:25;;;;;;;3.85;1.90;;;23.50;67.00;;;;;;5181745;28;20049;-74
2021/06/07 11:06:04;;;;;;;5.10;1.65;;;23.50;66.90;;;;;;5180942;28;20396;-74
2021/06/07 11:08:38;;;;;;;3.85;1.80;;;23.50;66.90;;;;;;5182265;28;20049;-74
2021/06/07 11:11:22;;;;;;;3.45;2.00;;;23.60;66.80;;;;;;5183880;28;20046;-74
2021/06/07 11:14:01;;;;;;;3.03;1.70;;;23.60;66.70;;;;;;5177500;28;20060;-74
2021/06/07 11:16:39;;;;;;;5.35;1.83;;;23.60;66.70;;;;;;5190074;28;20057;-74
2021/06/07 11:19:14;;;;;;;3.25;1.88;;;23.60;66.60;;;;;;5183382;28;20057;-74
2021/06/07 11:21:55;;;;;;;2.70;1.80;;;23.60;66.60;;;;;;5182547;28;20045;-74
2021/06/07 11:24:34;;;;;;;4.32;1.70;;;23.60;66.50;;;;;;5173902;28;20061;-74
2021/06/07 11:27:40;;;;;;;5.28;1.73;;;23.60;66.50;;;;;;5174433;28;20053;-74
2021/06/07 11:30:19;;;;;;;3.80;1.77;;;23.60;66.40;;;;;;5179035;28;20247;-74
2021/06/07 11:33:06;;;;;;;4.07;1.70;;;23.60;66.40;;;;;;5172260;28;20049;-73
2021/06/07 11:35:41;;;;;;;2.55;1.52;;;23.70;66.40;;;;;;5180368;28;20056;-72
2021/06/07 11:38:34;;;;;;;5.50;2.33;;;23.70;66.30;;;;;;5185478;28;20054;-74
2021/06/07 11:41:43;;;;;;;3.88;1.85;;;23.70;66.30;;;;;;5203004;28;20053;-74
2021/06/07 11:44:17;;;;;;;1.90;1.65;;;23.70;66.30;;;;;;5181227;28;20049;-74
2021/06/07 11:46:49;;;;;;;4.50;1.50;;;23.70;66.40;;;;;;5189241;28;20053;-74
2021/06/07 11:49:22;;;;;;;8.93;2.87;;;23.70;66.40;;;;;;5186854;28;20053;-73
2021/06/07 11:52:34;;;;;;;4.43;2.15;;;23.80;66.70;;;;;;5201706;28;20304;-73
2021/06/07 11:55:35;;;;;;;2.90;2.00;;;23.70;66.80;;;;;;5172115;28;20060;-73
2021/06/07 11:58:18;;;;;;;2.30;2.10;;;23.70;66.80;;;;;;5179669;28;20049;-73
2021/06/07 12:01:03;;;;;;;4.55;2.55;;;23.70;66.80;;;;;;5200664;28;20049;-73
2021/06/07 12:03:37;;;;;;;7.68;2.67;;;23.80;66.80;;;;;;5188579;28;20582;-73
2021/06/07 12:06:10;;;;;;;6.78;2.40;;;23.70;66.70;;;;;;5177975;28;20064;-73
2021/06/07 12:08:42;;;;;;;4.40;1.95;;;23.80;66.80;;;;;;5182730;28;20064;-73
2021/06/07 12:11:15;;;;;;;4.05;2.05;;;23.80;66.80;;;;;;5179210;28;20046;-73
2021/06/07 12:13:47;;;;;;;8.20;2.38;;;23.80;66.70;;;;;;5176813;28;20053;-73
2021/06/07 12:16:20;;;;;;;9.43;2.35;;;23.80;66.70;;;;;;5181212;28;20053;-72
2021/06/07 12:18:53;;;;;;;5.97;2.92;;;23.80;66.60;;;;;;5184595;28;20050;-72
2021/06/07 12:21:28;;;;;;;4.53;2.40;;;23.90;66.70;;;;;;5184033;28;20495;-73
2021/06/07 12:24:06;;;;;;;6.18;2.53;;;23.90;66.60;;;;;;5183371;28;20057;-73
2021/06/07 12:29:40;;;;;;;8.07;2.40;;;24.00;67.30;;;;;;5184405;28;20061;-71
2021/06/07 12:32:21;;;;;;;6.05;2.60;;;24.00;66.60;;;;;;5188751;28;20049;-74
2021/06/07 12:34:54;;;;;;;6.20;2.70;;;24.00;66.60;;;;;;5183861;28;20069;-74
2021/06/07 12:37:33;;;;;;;7.75;2.40;;;24.00;66.60;;;;;;5182711;28;20060;-74
2021/06/07 12:40:09;;;;;;;4.13;2.15;;;24.00;66.60;;;;;;5179598;28;20535;-75
2021/06/07 12:42:44;;;;;;;5.80;2.58;;;24.10;66.60;;;;;;5183260;28;20056;-74
2021/06/07 12:45:20;;;;;;;4.47;2.20;;;24.10;66.50;;;;;;5175619;28;20425;-74
2021/06/07 12:47:52;;;;;;;4.50;2.25;;;24.10;66.50;;;;;;5179933;28;20050;-74
2021/06/07 12:50:26;;;;;;;3.08;2.10;;;24.10;66.40;;;;;;5185902;28;20577;-75
2021/06/07 12:52:58;;;;;;;3.38;1.98;;;24.10;66.40;;;;;;5172642;28;20061;-75
2021/06/07 12:55:33;;;;;;;3.20;2.30;;;24.10;66.40;;;;;;5173482;28;20415;-74
2021/06/07 12:58:15;;;;;;;6.60;1.98;;;24.10;66.30;;;;;;5170709;28;20381;-75
2021/06/07 13:00:53;;;;;;;3.97;2.00;;;24.10;66.20;;;;;;5171716;28;20165;-74
2021/06/07 13:03:31;;;;;;;3.78;1.90;;;24.10;66.20;;;;;;5174548;28;20492;-74
2021/06/07 13:06:09;;;;;;;5.50;2.75;;;24.10;66.10;;;;;;5176651;28;20084;-74
2021/06/07 13:08:48;;;;;;;4.40;1.83;;;24.10;66.10;;;;;;5178048;28;20540;-75
2021/06/07 13:11:36;;;;;;;3.75;2.28;;;24.10;66.10;;;;;;5173994;28;20065;-75
2021/06/07 13:14:24;;;;;;;1.88;1.67;;;24.10;66.10;;;;;;5174682;28;20502;-75
2021/06/07 13:17:11;;;;;;;4.60;2.30;;;24.00;66.10;;;;;;5173318;28;20327;-75
2021/06/07 13:19:47;;;;;;;2.35;2.15;;;24.00;66.10;;;;;;5184447;28;20053;-75
2021/06/07 13:22:20;;;;;;;5.38;2.13;;;24.10;66.10;;;;;;5177582;28;20058;-75
2021/06/07 13:24:53;;;;;;;2.80;2.30;;;24.10;66.10;;;;;;5171441;28;20064;-75
2021/06/07 13:27:26;;;;;;;2.58;1.80;;;24.10;66.00;;;;;;5180149;28;20518;-75
2021/06/07 13:30:06;;;;;;;4.60;2.28;;;24.10;65.90;;;;;;5181173;28;20061;-74
2021/06/07 13:32:40;;;;;;;3.63;2.42;;;24.10;65.80;;;;;;5172071;28;20565;-75
2021/06/07 13:35:13;;;;;;;3.60;2.15;;;24.10;65.80;;;;;;5173225;28;20216;-75
2021/06/07 13:37:53;;;;;;;3.35;2.20;;;24.10;65.80;;;;;;5172465;28;20410;-75
2021/06/07 13:40:29;;;;;;;2.90;2.30;;;24.10;65.80;;;;;;5173692;28;20507;-74